Time;durP1;ratioP1;P1;durP2;ratioP2;P2;SDS_P1;SDS_P2;PMS_P1;PMS_P2;Temp;Humidity;BMP_temperature;BMP_pressure;BME280_temperature;BME280_humidity;BME280_pressure;Samples;Min_cycle;Max_cycle;Signal;HPM_P1;HPM_P2
2022/04/04 00:00:00;;;;;;;9.03;5.90;;;4.50;99.90;;;;;;4991707;28;20202;-75
2022/04/04 00:02:27;;;;;;;6.80;5.60;;;4.50;99.90;;;;;;4983129;28;20191;-75
2022/04/04 00:04:56;;;;;;;8.27;6.00;;;4.50;99.90;;;;;;4983046;28;20222;-75
2022/04/04 00:07:23;;;;;;;10.07;6.87;;;4.60;99.90;;;;;;4968867;28;20221;-76
2022/04/04 00:09:50;;;;;;;10.03;6.27;;;4.40;99.90;;;;;;4972768;28;20196;-75
2022/04/04 00:12:18;;;;;;;7.83;6.87;;;4.50;99.90;;;;;;4983132;28;20212;-75
2022/04/04 00:14:45;;;;;;;8.33;6.93;;;4.40;99.90;;;;;;4969956;28;20205;-75
2022/04/04 00:17:13;;;;;;;9.50;7.07;;;4.30;99.90;;;;;;4967332;28;20227;-75
2022/04/04 00:19:41;;;;;;;10.07;7.73;;;4.30;99.90;;;;;;4972758;28;20196;-76
2022/04/04 00:22:09;;;;;;;9.50;8.43;;;4.30;99.90;;;;;;4974881;28;20216;-75
2022/04/04 00:24:37;;;;;;;10.43;8.93;;;4.30;99.90;;;;;;4981949;28;20200;-75
2022/04/04 00:27:06;;;;;;;9.60;8.63;;;4.10;99.90;;;;;;4982733;28;20221;-76
2022/04/04 00:29:33;;;;;;;9.10;8.20;;;4.10;99.90;;;;;;4976941;28;20223;-75
2022/04/04 00:32:01;;;;;;;9.97;8.87;;;4.20;99.90;;;;;;4970540;28;20198;-75
2022/04/04 00:34:28;;;;;;;9.93;7.93;;;4.20;99.90;;;;;;4973034;28;20213;-75
2022/04/04 00:36:55;;;;;;;8.93;8.10;;;4.30;99.90;;;;;;4986798;28;20592;-75
2022/04/04 00:39:26;;;;;;;9.27;8.37;;;4.20;99.90;;;;;;4968269;28;20201;-75
2022/04/04 00:41:53;;;;;;;10.47;8.20;;;4.20;99.90;;;;;;4993953;28;20211;-75
2022/04/04 00:44:21;;;;;;;9.07;8.03;;;4.10;99.90;;;;;;4979658;28;20199;-75
2022/04/04 00:46:48;;;;;;;9.87;8.87;;;4.20;99.90;;;;;;4979642;28;20228;-75
2022/04/04 00:49:15;;;;;;;8.87;7.77;;;4.00;99.90;;;;;;4971959;28;20197;-75
2022/04/04 00:51:43;;;;;;;9.43;8.17;;;4.00;99.90;;;;;;4989990;28;20614;-75
2022/04/04 00:54:15;;;;;;;9.70;8.70;;;4.00;99.90;;;;;;4976118;28;20199;-77
2022/04/04 00:56:45;;;;;;;12.03;8.07;;;4.00;99.90;;;;;;4988890;28;20556;-77
2022/04/04 00:59:17;;;;;;;9.27;8.37;;;3.90;99.90;;;;;;4988241;28;20209;-79
2022/04/04 01:01:44;;;;;;;10.37;9.37;;;3.90;99.90;;;;;;4969444;28;20208;-77
2022/04/04 01:04:13;;;;;;;9.90;7.93;;;3.90;99.90;;;;;;4984595;28;20671;-78
2022/04/04 01:06:41;;;;;;;10.40;9.37;;;4.00;99.90;;;;;;4975003;28;20233;-75
2022/04/04 01:09:09;;;;;;;10.90;9.73;;;3.90;99.90;;;;;;4983281;28;20193;-75
2022/04/04 01:11:37;;;;;;;12.33;9.33;;;3.80;99.90;;;;;;4982989;28;20571;-75
2022/04/04 01:14:05;;;;;;;12.87;9.57;;;3.80;99.90;;;;;;4969087;28;20217;-75
2022/04/04 01:16:33;;;;;;;11.37;9.70;;;3.70;99.90;;;;;;4981391;28;20808;-75
2022/04/04 01:19:00;;;;;;;11.97;10.07;;;3.70;99.90;;;;;;4970561;28;20214;-76
2022/04/04 01:21:28;;;;;;;12.20;9.83;;;3.70;99.90;;;;;;4965558;28;20244;-76
2022/04/04 01:23:59;;;;;;;11.10;10.00;;;3.70;99.90;;;;;;4974452;28;20201;-76
2022/04/04 01:26:28;;;;;;;10.17;9.13;;;3.60;99.90;;;;;;4979505;28;20232;-76
2022/04/04 01:28:55;;;;;;;10.90;9.80;;;3.60;99.90;;;;;;4963321;28;20213;-76
2022/04/04 01:31:23;;;;;;;10.70;9.53;;;3.70;99.90;;;;;;4976510;28;20223;-76
2022/04/04 01:33:51;;;;;;;10.30;9.30;;;3.70;99.90;;;;;;4970753;28;20204;-76
2022/04/04 01:36:18;;;;;;;11.37;9.90;;;3.60;99.90;;;;;;4979469;28;20216;-75
2022/04/04 01:38:46;;;;;;;11.37;10.10;;;3.60;99.90;;;;;;4979100;28;20204;-75
2022/04/04 01:41:14;;;;;;;11.73;9.63;;;3.60;99.90;;;;;;4987498;28;20189;-76
2022/04/04 01:43:43;;;;;;;11.63;9.63;;;3.60;99.90;;;;;;4986886;28;20204;-76
2022/04/04 01:46:25;;;;;;;10.97;9.10;;;3.60;99.90;;;;;;4985325;28;20224;-76
2022/04/04 01:48:56;;;;;;;11.53;10.07;;;3.60;99.90;;;;;;4974339;28;20595;-75
2022/04/04 01:51:24;;;;;;;11.80;9.57;;;3.60;99.90;;;;;;4973432;28;20205;-76
2022/04/04 01:53:51;;;;;;;12.23;9.60;;;3.60;99.90;;;;;;4966055;28;20205;-77
2022/04/04 01:56:20;;;;;;;10.23;9.13;;;3.70;99.90;;;;;;4972863;28;20209;-75
2022/04/04 01:58:49;;;;;;;9.97;8.97;;;3.70;99.90;;;;;;4989995;28;20204;-76
2022/04/04 02:01:19;;;;;;;10.70;9.60;;;3.60;99.90;;;;;;4986323;28;20204;-75
2022/04/04 02:03:48;;;;;;;11.60;8.97;;;3.60;99.90;;;;;;4971967;28;20651;-76
2022/04/04 02:06:18;;;;;;;11.87;8.97;;;3.50;99.90;;;;;;4984561;28;20224;-76
2022/04/04 02:08:48;;;;;;;13.03;8.70;;;3.50;99.90;;;;;;4967100;28;20204;-76
2022/04/04 02:11:17;;;;;;;11.13;8.77;;;3.70;99.90;;;;;;4975348;28;20233;-74
2022/04/04 02:13:45;;;;;;;9.53;8.00;;;3.60;99.90;;;;;;4967050;28;20206;-75
2022/04/04 02:16:14;;;;;;;9.80;8.30;;;3.60;99.90;;;;;;4974771;28;20231;-75
2022/04/04 02:19:00;;;;;;;12.73;9.53;;;3.60;99.90;;;;;;4969927;28;20190;-76
2022/04/04 02:21:28;;;;;;;12.13;9.77;;;3.50;99.90;;;;;;4983901;28;20181;-76
2022/04/04 02:23:55;;;;;;;11.80;8.67;;;3.50;99.90;;;;;;4988109;28;20208;-75
2022/04/04 02:26:23;;;;;;;9.47;8.47;;;3.50;99.90;;;;;;4973675;28;20217;-75
2022/04/04 02:28:50;;;;;;;10.37;8.27;;;3.40;99.90;;;;;;4979434;28;20193;-75
2022/04/04 02:31:19;;;;;;;9.30;8.20;;;3.50;99.90;;;;;;4983186;28;20201;-76
2022/04/04 02:33:46;;;;;;;9.97;8.30;;;3.50;99.90;;;;;;4994523;28;20199;-76
2022/04/04 02:36:14;;;;;;;11.20;8.43;;;3.60;99.90;;;;;;4961538;28;20234;-76
2022/04/04 02:38:41;;;;;;;10.30;7.63;;;3.50;99.90;;;;;;4982049;28;20188;-76
2022/04/04 02:41:09;;;;;;;11.67;8.37;;;3.50;99.90;;;;;;4978959;28;20201;-76
2022/04/04 02:43:36;;;;;;;10.47;7.93;;;3.60;99.90;;;;;;4993335;28;20197;-75
2022/04/04 02:46:04;;;;;;;10.33;7.93;;;3.60;99.90;;;;;;4988089;28;20587;-77
2022/04/04 02:48:32;;;;;;;8.47;7.50;;;3.60;99.90;;;;;;4965768;28;20200;-75
2022/04/04 02:51:01;;;;;;;11.10;7.80;;;3.50;99.90;;;;;;4970251;28;20224;-76
2022/04/04 02:53:29;;;;;;;10.60;7.90;;;3.60;99.90;;;;;;4989635;28;20191;-76
2022/04/04 02:58:41;;;;;;;10.27;7.80;;;3.60;99.90;;;;;;4968977;28;20190;-75
2022/04/04 03:01:08;;;;;;;11.30;9.23;;;3.60;99.90;;;;;;4977024;28;20196;-76
2022/04/04 03:03:37;;;;;;;9.53;8.47;;;3.60;99.90;;;;;;4976451;28;20204;-76
2022/04/04 03:06:05;;;;;;;10.67;7.97;;;3.70;99.90;;;;;;4978603;28;20220;-76
2022/04/04 03:08:32;;;;;;;9.97;8.10;;;3.70;99.90;;;;;;4988962;28;20201;-77
2022/04/04 03:11:00;;;;;;;10.80;8.87;;;3.80;99.90;;;;;;4981771;28;20213;-75
2022/04/04 03:13:27;;;;;;;10.70;8.97;;;3.70;99.90;;;;;;4968785;28;20200;-78
2022/04/04 03:15:55;;;;;;;11.03;8.40;;;3.70;99.90;;;;;;4970467;28;20222;-77
2022/04/04 03:18:45;;;;;;;14.10;9.70;;;3.70;99.90;;;;;;4957685;28;20208;-78
2022/04/04 03:21:13;;;;;;;9.87;8.23;;;3.60;99.90;;;;;;4973708;28;20188;-77
2022/04/04 03:23:40;;;;;;;11.40;9.50;;;3.80;99.90;;;;;;4980814;28;20204;-79
2022/04/04 03:26:09;;;;;;;12.07;8.53;;;3.80;99.90;;;;;;4995445;28;20221;-76
2022/04/04 03:28:36;;;;;;;11.50;8.93;;;3.70;99.90;;;;;;4987909;28;20200;-75
2022/04/04 03:31:05;;;;;;;11.17;8.90;;;3.80;99.90;;;;;;4976821;28;20236;-75
2022/04/04 03:33:35;;;;;;;12.83;9.37;;;3.70;99.90;;;;;;4958014;28;20212;-75
2022/04/04 03:36:04;;;;;;;9.50;8.43;;;3.70;99.90;;;;;;4973650;28;20225;-76
2022/04/04 03:38:33;;;;;;;11.57;8.07;;;3.80;99.90;;;;;;4965779;28;20192;-75
2022/04/04 03:41:00;;;;;;;10.57;8.03;;;3.80;99.90;;;;;;4990293;28;20203;-77
2022/04/04 03:43:28;;;;;;;12.10;7.63;;;3.70;99.90;;;;;;4972642;28;20200;-77
2022/04/04 03:45:55;;;;;;;10.80;8.57;;;3.70;99.90;;;;;;4977788;28;20223;-77
2022/04/04 03:48:22;;;;;;;10.27;7.40;;;3.80;99.90;;;;;;4978744;28;20196;-75
2022/04/04 03:50:54;;;;;;;10.23;8.00;;;3.80;99.90;;;;;;4982883;28;20219;-78
2022/04/04 03:53:25;;;;;;;9.03;7.43;;;3.80;99.90;;;;;;4977386;28;20235;-77
2022/04/04 03:55:53;;;;;;;9.53;7.33;;;3.80;99.90;;;;;;4989755;28;20204;-78
2022/04/04 03:58:20;;;;;;;11.10;7.87;;;3.90;99.90;;;;;;4985428;28;20201;-77
2022/04/04 04:00:49;;;;;;;9.00;6.73;;;3.80;99.90;;;;;;4975589;28;20197;-76
2022/04/04 04:03:16;;;;;;;8.70;6.87;;;3.80;99.90;;;;;;4978944;28;20196;-74
2022/04/04 04:05:43;;;;;;;10.00;7.03;;;3.90;99.90;;;;;;4971010;28;20200;-73
2022/04/04 04:08:11;;;;;;;9.73;6.90;;;3.90;99.90;;;;;;4987737;28;20567;-73
2022/04/04 04:10:39;;;;;;;8.97;6.97;;;3.80;99.90;;;;;;4965410;28;20651;-73
2022/04/04 04:13:07;;;;;;;7.97;7.13;;;3.90;99.90;;;;;;4964810;28;20206;-73
2022/04/04 04:15:34;;;;;;;8.00;6.57;;;3.90;99.90;;;;;;4972533;28;20233;-73
2022/04/04 04:18:02;;;;;;;10.27;7.63;;;3.90;99.90;;;;;;4972437;28;20216;-73
2022/04/04 04:20:32;;;;;;;9.53;7.37;;;3.90;99.90;;;;;;4981778;28;20219;-73
2022/04/04 04:23:03;;;;;;;7.97;6.47;;;3.80;99.90;;;;;;4993179;28;20178;-73
2022/04/04 04:25:31;;;;;;;10.70;7.73;;;3.90;99.90;;;;;;4976708;28;20679;-73
2022/04/04 04:28:01;;;;;;;9.03;6.80;;;3.80;99.90;;;;;;4966731;28;20638;-74
2022/04/04 04:30:29;;;;;;;10.87;7.87;;;3.80;99.90;;;;;;4971856;28;20201;-73
2022/04/04 04:32:57;;;;;;;10.07;7.07;;;3.80;99.90;;;;;;4978164;28;20223;-73
2022/04/04 04:35:29;;;;;;;10.93;7.27;;;3.80;99.90;;;;;;4980228;28;20196;-75
2022/04/04 04:37:56;;;;;;;9.27;7.17;;;3.70;99.90;;;;;;4991744;28;20233;-73
2022/04/04 04:40:24;;;;;;;10.07;8.33;;;3.80;99.90;;;;;;4978555;28;20211;-73
2022/04/04 04:42:53;;;;;;;11.13;8.60;;;3.80;99.90;;;;;;4985324;28;20285;-73
2022/04/04 04:45:22;;;;;;;9.57;8.13;;;3.70;99.90;;;;;;4979211;28;20198;-73
2022/04/04 04:47:51;;;;;;;12.43;7.90;;;3.70;99.90;;;;;;4984236;28;20235;-74
2022/04/04 04:50:20;;;;;;;9.83;8.27;;;3.80;99.90;;;;;;4981364;28;20201;-74
2022/04/04 04:52:48;;;;;;;11.47;8.87;;;3.80;99.90;;;;;;4990898;28;20229;-73
2022/04/04 04:55:18;;;;;;;11.33;8.60;;;3.80;99.90;;;;;;4977193;28;20215;-73
2022/04/04 04:57:45;;;;;;;10.27;7.97;;;3.90;99.90;;;;;;4978320;28;20217;-73
2022/04/04 05:00:15;;;;;;;8.83;7.67;;;3.80;99.90;;;;;;4970595;28;20216;-73
2022/04/04 05:02:44;;;;;;;10.67;8.80;;;3.70;99.90;;;;;;4981262;28;20188;-74
2022/04/04 05:05:11;;;;;;;9.87;8.30;;;3.70;99.90;;;;;;4979265;28;20206;-74
2022/04/04 05:07:39;;;;;;;12.60;8.30;;;3.80;99.90;;;;;;4977467;28;20242;-74
2022/04/04 05:10:07;;;;;;;9.63;8.03;;;3.70;99.90;;;;;;4967977;28;20199;-74
2022/04/04 05:12:35;;;;;;;10.37;9.27;;;3.70;99.90;;;;;;4975121;28;20706;-74
2022/04/04 05:15:02;;;;;;;12.30;8.87;;;3.70;99.90;;;;;;4963466;28;20217;-74
2022/04/04 05:17:32;;;;;;;10.67;9.57;;;3.60;99.90;;;;;;4982282;28;20290;-74
2022/04/04 05:20:01;;;;;;;12.67;9.73;;;3.70;99.90;;;;;;4973995;28;20209;-74
2022/04/04 05:22:28;;;;;;;13.90;9.63;;;3.70;99.90;;;;;;4981670;28;20687;-73
2022/04/04 05:24:56;;;;;;;14.77;9.97;;;3.70;99.90;;;;;;4980762;28;20211;-74
2022/04/04 05:27:23;;;;;;;13.37;10.03;;;3.70;99.90;;;;;;4979011;28;20225;-74
2022/04/04 05:29:55;;;;;;;14.63;10.37;;;3.70;99.90;;;;;;4975005;28;20199;-74
2022/04/04 05:32:22;;;;;;;12.50;9.67;;;3.60;99.90;;;;;;4969190;28;20259;-74
2022/04/04 05:34:50;;;;;;;11.83;10.03;;;3.70;99.90;;;;;;4980889;28;20202;-73
2022/04/04 05:37:19;;;;;;;10.70;9.03;;;3.60;99.90;;;;;;4984241;28;20232;-74
2022/04/04 05:39:46;;;;;;;10.90;9.67;;;3.70;99.90;;;;;;4966969;28;20198;-74
2022/04/04 05:42:15;;;;;;;13.07;9.90;;;3.70;99.90;;;;;;4972785;28;20214;-74
2022/04/04 05:44:45;;;;;;;11.87;9.03;;;3.70;99.90;;;;;;4955430;28;20191;-74
2022/04/04 05:47:14;;;;;;;14.47;10.00;;;3.70;99.90;;;;;;4994970;28;20704;-74
2022/04/04 05:49:41;;;;;;;14.27;9.93;;;3.80;99.90;;;;;;4978247;28;20569;-74
2022/04/04 05:52:11;;;;;;;13.30;9.93;;;3.80;99.90;;;;;;4967787;28;20223;-74
2022/04/04 05:54:53;;;;;;;13.80;10.10;;;3.80;99.90;;;;;;4988209;28;20215;-74
2022/04/04 05:57:21;;;;;;;12.90;9.53;;;3.90;99.90;;;;;;4976843;28;20219;-74
2022/04/04 05:59:49;;;;;;;11.63;9.47;;;3.80;99.90;;;;;;4982815;28;20205;-74
2022/04/04 06:02:16;;;;;;;13.13;8.50;;;4.00;99.90;;;;;;4975155;28;20205;-74
2022/04/04 06:04:43;;;;;;;12.87;8.70;;;4.00;99.90;;;;;;4973828;28;20206;-74
2022/04/04 06:07:12;;;;;;;12.07;8.40;;;4.00;99.90;;;;;;4968847;28;20217;-74
2022/04/04 06:09:40;;;;;;;13.03;8.30;;;4.00;99.90;;;;;;4969142;28;20208;-74
2022/04/04 06:12:09;;;;;;;8.57;7.47;;;4.10;99.90;;;;;;4967358;28;20207;-74
2022/04/04 06:14:36;;;;;;;11.20;8.07;;;4.10;99.90;;;;;;4965157;28;20206;-75
2022/04/04 06:17:05;;;;;;;9.57;7.60;;;4.10;99.90;;;;;;4963928;28;20213;-74
2022/04/04 06:19:34;;;;;;;9.53;7.30;;;4.20;99.90;;;;;;4965400;28;20206;-74
2022/04/04 06:22:01;;;;;;;10.03;7.50;;;4.30;99.90;;;;;;4969385;28;20582;-74
2022/04/04 06:24:30;;;;;;;12.07;7.57;;;4.30;99.90;;;;;;4961503;28;20287;-74
2022/04/04 06:26:59;;;;;;;11.57;7.97;;;4.30;99.90;;;;;;4966803;28;20233;-74
2022/04/04 06:29:27;;;;;;;12.53;8.20;;;4.40;99.90;;;;;;4966167;28;20208;-74
2022/04/04 06:31:55;;;;;;;10.93;8.07;;;4.40;99.90;;;;;;4965161;28;20202;-74
2022/04/04 06:34:22;;;;;;;10.87;7.30;;;4.50;99.90;;;;;;4963783;28;20219;-74
2022/04/04 06:36:50;;;;;;;11.30;7.63;;;4.50;99.90;;;;;;4980482;28;20227;-74
2022/04/04 06:39:17;;;;;;;11.87;7.30;;;4.50;99.90;;;;;;4964376;28;20210;-74
2022/04/04 06:41:45;;;;;;;9.47;7.40;;;4.50;99.90;;;;;;4979707;28;20214;-74
2022/04/04 06:44:16;;;;;;;10.83;8.27;;;4.60;99.90;;;;;;4963599;28;20211;-74
2022/04/04 06:46:43;;;;;;;11.70;7.27;;;4.60;99.90;;;;;;4967062;28;20236;-75
2022/04/04 06:49:11;;;;;;;10.53;7.07;;;4.70;99.90;;;;;;4959668;28;20216;-74
2022/04/04 06:51:38;;;;;;;11.03;7.30;;;4.70;99.90;;;;;;4962095;28;20644;-74
2022/04/04 06:54:07;;;;;;;10.90;7.93;;;4.70;99.90;;;;;;4967709;28;20281;-74
2022/04/04 06:56:35;;;;;;;11.20;8.40;;;4.80;99.90;;;;;;4962338;28;20223;-74
2022/04/04 06:59:04;;;;;;;11.37;7.83;;;4.80;99.90;;;;;;4965694;28;20205;-74
2022/04/04 07:01:33;;;;;;;11.03;7.83;;;5.00;99.90;;;;;;4965422;28;20232;-74
2022/04/04 07:04:00;;;;;;;10.37;7.47;;;4.90;99.90;;;;;;4981157;28;20208;-74
2022/04/04 07:06:27;;;;;;;9.90;6.77;;;5.00;99.90;;;;;;4979153;28;20224;-74
2022/04/04 07:08:55;;;;;;;9.20;6.47;;;5.00;99.90;;;;;;4964344;28;20222;-74
2022/04/04 07:11:29;;;;;;;10.87;7.43;;;5.00;99.90;;;;;;4966420;28;20206;-74
2022/04/04 07:13:58;;;;;;;12.90;8.10;;;5.00;99.90;;;;;;4965618;28;20574;-74
2022/04/04 07:16:26;;;;;;;13.50;9.10;;;5.10;99.90;;;;;;4977857;28;20711;-73
2022/04/04 07:18:55;;;;;;;11.83;7.47;;;5.10;99.90;;;;;;4970414;28;20196;-74
2022/04/04 07:21:23;;;;;;;11.40;7.33;;;5.10;99.90;;;;;;4973867;28;20215;-74
2022/04/04 07:23:51;;;;;;;11.10;8.97;;;5.20;99.90;;;;;;4970285;28;20655;-74
2022/04/04 07:26:21;;;;;;;9.63;7.50;;;5.20;99.90;;;;;;4974029;28;20229;-74
2022/04/04 07:28:49;;;;;;;12.13;8.53;;;5.30;99.90;;;;;;4985846;28;20676;-74
2022/04/04 07:31:16;;;;;;;9.73;8.73;;;5.30;99.90;;;;;;4969443;28;20221;-74
2022/04/04 07:33:44;;;;;;;9.60;8.43;;;5.40;99.90;;;;;;4967874;28;20214;-74
2022/04/04 07:36:12;;;;;;;9.33;7.63;;;5.40;99.90;;;;;;4964344;28;20229;-74
2022/04/04 07:38:40;;;;;;;10.27;8.00;;;5.40;99.90;;;;;;4979017;28;20202;-73
2022/04/04 07:41:09;;;;;;;10.43;8.00;;;5.40;99.90;;;;;;4977438;28;20204;-73
2022/04/04 07:43:37;;;;;;;11.13;9.10;;;5.50;99.90;;;;;;4980109;28;20201;-75
2022/04/04 07:46:04;;;;;;;11.03;8.37;;;5.50;99.90;;;;;;4959411;28;20232;-75
2022/04/04 07:48:32;;;;;;;10.83;8.40;;;5.60;99.90;;;;;;4964392;28;20210;-73
2022/04/04 07:51:00;;;;;;;11.67;8.40;;;5.70;99.90;;;;;;4957817;28;20562;-73
2022/04/04 07:53:28;;;;;;;10.13;7.77;;;5.70;99.90;;;;;;4966283;28;20241;-73
2022/04/04 07:55:56;;;;;;;10.33;8.70;;;5.80;99.90;;;;;;4966920;28;20216;-73
2022/04/04 07:58:23;;;;;;;11.07;8.17;;;5.90;99.90;;;;;;4965515;28;20200;-73
2022/04/04 08:00:52;;;;;;;9.80;7.67;;;6.00;99.90;;;;;;4961569;28;20209;-73
2022/04/04 08:03:21;;;;;;;9.77;7.17;;;5.90;99.90;;;;;;4961096;28;20304;-73
2022/04/04 08:05:49;;;;;;;10.73;7.83;;;5.80;99.90;;;;;;4966169;28;20194;-73
2022/04/04 08:08:17;;;;;;;11.27;7.37;;;5.90;99.90;;;;;;4962444;28;20203;-73
2022/04/04 08:10:48;;;;;;;9.23;8.17;;;6.00;99.90;;;;;;4964541;28;20210;-73
2022/04/04 08:13:15;;;;;;;9.43;7.53;;;6.00;99.90;;;;;;4960431;28;20226;-74
2022/04/04 08:15:44;;;;;;;11.10;8.77;;;6.10;99.90;;;;;;4962538;28;20191;-73
2022/04/04 08:18:13;;;;;;;9.60;8.00;;;6.10;99.90;;;;;;4966587;28;20195;-73
2022/04/04 08:20:40;;;;;;;8.40;7.40;;;6.00;99.90;;;;;;4965633;28;20209;-73
2022/04/04 08:23:08;;;;;;;9.47;7.73;;;6.10;99.90;;;;;;4968818;28;20208;-73
2022/04/04 08:25:35;;;;;;;15.17;8.93;;;6.20;99.90;;;;;;4962449;28;20203;-73
2022/04/04 08:28:05;;;;;;;10.80;8.57;;;6.20;99.90;;;;;;4961089;28;20718;-73
2022/04/04 08:30:32;;;;;;;12.47;8.53;;;6.20;99.90;;;;;;4960858;28;20197;-73
2022/04/04 08:33:00;;;;;;;8.97;7.70;;;6.30;99.90;;;;;;4984046;28;20225;-75
2022/04/04 08:35:27;;;;;;;8.03;6.80;;;6.30;99.90;;;;;;4967524;28;20212;-73
2022/04/04 08:37:54;;;;;;;10.23;8.33;;;6.30;99.90;;;;;;4963115;28;20704;-74
2022/04/04 08:40:22;;;;;;;7.67;5.97;;;6.40;99.90;;;;;;4967284;28;20205;-74
2022/04/04 08:42:49;;;;;;;13.07;8.40;;;6.30;99.90;;;;;;4983795;28;20199;-74
2022/04/04 08:45:18;;;;;;;10.93;7.67;;;6.40;99.90;;;;;;4969657;28;20215;-74
2022/04/04 08:47:46;;;;;;;12.07;8.00;;;6.50;99.90;;;;;;4961453;28;20276;-74
2022/04/04 08:50:13;;;;;;;12.30;8.27;;;6.40;99.90;;;;;;4967962;28;20206;-74
2022/04/04 08:52:44;;;;;;;10.07;7.47;;;6.40;99.90;;;;;;4969018;28;20199;-74
2022/04/04 08:55:13;;;;;;;7.50;6.70;;;6.30;99.90;;;;;;4986100;28;20213;-74
2022/04/04 08:57:40;;;;;;;8.90;7.00;;;6.10;99.90;;;;;;4989774;28;20235;-74
2022/04/04 09:00:10;;;;;;;8.37;7.07;;;6.10;99.90;;;;;;4967689;28;20209;-74
2022/04/04 09:02:39;;;;;;;12.33;8.17;;;6.10;99.90;;;;;;4967656;28;20206;-74
2022/04/04 09:05:07;;;;;;;13.30;8.50;;;6.20;99.90;;;;;;4967789;28;20204;-74
2022/04/04 09:07:54;;;;;;;10.67;7.73;;;6.20;99.90;;;;;;4983514;28;20236;-74
2022/04/04 09:10:31;;;;;;;9.57;7.43;;;6.20;99.90;;;;;;4974085;28;20208;-73
2022/04/04 09:13:14;;;;;;;10.73;7.67;;;6.10;99.90;;;;;;4965754;28;20196;-74
2022/04/04 09:15:59;;;;;;;12.83;8.10;;;6.10;99.90;;;;;;4968308;28;20221;-74
2022/04/04 09:18:49;;;;;;;8.80;6.97;;;6.10;99.90;;;;;;4971061;28;20198;-74
2022/04/04 09:21:37;;;;;;;11.10;8.00;;;6.00;99.90;;;;;;4994697;28;20650;-74
2022/04/04 09:24:10;;;;;;;9.87;8.67;;;6.00;99.90;;;;;;4970059;28;20186;-74
2022/04/04 09:26:41;;;;;;;8.47;7.67;;;6.00;99.90;;;;;;4967796;28;20212;-74
2022/04/04 09:29:14;;;;;;;8.80;7.17;;;6.00;99.90;;;;;;4970052;28;20222;-74
2022/04/04 09:32:05;;;;;;;7.93;7.03;;;6.10;99.90;;;;;;4989216;28;20574;-73
2022/04/04 09:34:54;;;;;;;9.43;7.87;;;6.00;99.90;;;;;;4968969;28;20212;-74
2022/04/04 09:37:22;;;;;;;8.83;7.33;;;6.00;99.90;;;;;;4984766;28;20232;-74
2022/04/04 09:39:50;;;;;;;9.43;7.20;;;5.90;99.90;;;;;;4971334;28;20202;-74
2022/04/04 09:42:19;;;;;;;11.90;8.40;;;5.90;99.90;;;;;;4965384;28;20671;-74
2022/04/04 09:44:58;;;;;;;9.10;7.80;;;6.00;99.90;;;;;;4965810;28;20221;-74
2022/04/04 09:47:49;;;;;;;8.10;7.30;;;6.00;99.90;;;;;;4984973;28;20244;-73
2022/04/04 09:50:41;;;;;;;10.07;7.97;;;5.90;99.90;;;;;;4950077;28;20257;-74
2022/04/04 09:53:11;;;;;;;9.30;7.63;;;5.90;99.90;;;;;;4946047;28;20690;-74
2022/04/04 09:55:40;;;;;;;9.13;8.07;;;5.90;99.90;;;;;;4944459;29;20217;-74
2022/04/04 09:58:09;;;;;;;8.90;7.73;;;5.90;99.90;;;;;;4949957;28;20235;-73
2022/04/04 10:00:44;;;;;;;11.50;7.70;;;6.00;99.90;;;;;;4945124;28;20211;-75
2022/04/04 10:03:13;;;;;;;10.03;7.27;;;6.00;99.90;;;;;;4951593;28;20246;-74
2022/04/04 10:05:43;;;;;;;8.77;7.47;;;6.10;99.90;;;;;;4950201;28;20206;-74
2022/04/04 10:08:14;;;;;;;9.97;8.23;;;6.10;99.90;;;;;;4945919;28;20226;-74
2022/04/04 10:10:42;;;;;;;7.93;7.10;;;6.20;99.90;;;;;;4949538;28;20202;-74
2022/04/04 10:13:10;;;;;;;10.13;8.07;;;6.20;99.90;;;;;;4951393;28;20204;-73
2022/04/04 10:15:53;;;;;;;9.80;7.67;;;6.20;99.90;;;;;;4946413;28;20232;-74
2022/04/04 10:18:22;;;;;;;11.67;8.30;;;6.20;99.90;;;;;;4950088;28;20210;-74
2022/04/04 10:20:53;;;;;;;10.57;8.40;;;6.20;99.90;;;;;;4940415;28;20203;-75
2022/04/04 10:23:21;;;;;;;10.17;9.07;;;6.20;99.90;;;;;;4949121;28;20697;-75
2022/04/04 10:25:57;;;;;;;10.77;9.23;;;6.20;99.90;;;;;;4947931;28;20219;-74
2022/04/04 10:28:28;;;;;;;11.53;9.17;;;6.10;99.90;;;;;;4949829;28;20617;-74
2022/04/04 10:30:59;;;;;;;11.57;9.43;;;5.90;99.90;;;;;;4945075;28;20210;-74
2022/04/04 10:33:27;;;;;;;11.17;9.67;;;5.90;99.90;;;;;;4947613;28;20197;-74
2022/04/04 10:36:04;;;;;;;12.70;9.87;;;5.80;99.90;;;;;;4943885;28;20235;-74
2022/04/04 10:38:33;;;;;;;10.93;9.90;;;5.80;99.90;;;;;;4944968;28;20529;-74
2022/04/04 10:41:02;;;;;;;13.17;10.17;;;5.70;99.90;;;;;;4942779;28;20202;-74
2022/04/04 10:43:32;;;;;;;13.50;11.53;;;5.60;99.90;;;;;;4952881;28;20218;-74
2022/04/04 10:46:02;;;;;;;13.73;11.67;;;5.60;99.90;;;;;;4970633;28;20213;-74
2022/04/04 10:48:32;;;;;;;12.40;11.10;;;5.60;99.90;;;;;;4973664;28;20215;-74
2022/04/04 10:51:18;;;;;;;14.33;12.63;;;5.60;99.90;;;;;;4970796;28;20201;-74
2022/04/04 10:53:51;;;;;;;13.30;11.77;;;5.50;99.90;;;;;;4971059;28;20215;-74
2022/04/04 10:56:21;;;;;;;13.73;12.33;;;5.50;99.90;;;;;;4948553;28;20242;-74
2022/04/04 10:58:50;;;;;;;12.10;10.83;;;5.50;99.90;;;;;;4949977;28;20194;-73
2022/04/04 11:01:27;;;;;;;13.97;12.33;;;5.50;99.90;;;;;;4942491;28;20213;-73
2022/04/04 11:03:59;;;;;;;13.57;11.70;;;5.40;99.90;;;;;;4950265;28;20204;-73
2022/04/04 11:09:33;;;;;;;16.63;13.17;;;5.40;99.90;;;;;;4949552;28;20205;-74
2022/04/04 11:12:13;;;;;;;14.63;13.03;;;5.40;99.90;;;;;;4948421;28;20204;-74
2022/04/04 11:14:55;;;;;;;16.37;12.37;;;5.40;99.90;;;;;;4944242;28;20594;-74
2022/04/04 11:17:30;;;;;;;15.73;13.07;;;5.30;99.90;;;;;;4958541;28;20237;-74
2022/04/04 11:20:04;;;;;;;15.67;13.70;;;5.30;99.90;;;;;;4955922;28;20583;-74
2022/04/04 11:22:37;;;;;;;17.50;13.87;;;5.20;99.90;;;;;;4963659;28;20213;-76
2022/04/04 11:25:07;;;;;;;17.00;13.73;;;5.10;99.90;;;;;;4948729;28;20297;-74
2022/04/04 11:27:37;;;;;;;17.00;13.83;;;5.10;99.90;;;;;;4958621;28;20228;-73
2022/04/04 11:30:07;;;;;;;19.43;15.83;;;5.00;99.90;;;;;;4971460;28;20199;-73
2022/04/04 11:32:40;;;;;;;19.80;15.57;;;5.00;99.90;;;;;;4951226;28;20205;-73
2022/04/04 11:35:12;;;;;;;16.80;11.93;;;5.00;99.90;;;;;;4952083;28;20220;-73
2022/04/04 11:37:48;;;;;;;19.27;16.53;;;5.00;99.90;;;;;;4966178;28;20230;-73
2022/04/04 11:40:18;;;;;;;17.97;15.40;;;5.00;99.90;;;;;;4952143;28;20584;-73
2022/04/04 11:42:51;;;;;;;16.43;14.47;;;5.10;99.90;;;;;;4962987;28;20205;-74
2022/04/04 11:45:20;;;;;;;15.07;13.10;;;5.00;99.90;;;;;;4944249;28;20577;-74
2022/04/04 11:47:53;;;;;;;16.93;13.20;;;5.00;99.90;;;;;;4952538;28;20236;-74
2022/04/04 11:50:23;;;;;;;16.90;14.57;;;4.90;99.90;;;;;;4945341;28;20208;-74
2022/04/04 11:52:54;;;;;;;16.00;13.07;;;5.00;99.90;;;;;;4957957;28;20639;-74
2022/04/04 11:55:27;;;;;;;15.70;14.10;;;5.00;99.90;;;;;;4948693;28;20224;-74
2022/04/04 11:57:57;;;;;;;16.40;13.93;;;4.90;99.90;;;;;;4948193;28;20232;-74
2022/04/04 12:00:26;;;;;;;16.47;13.97;;;5.00;99.90;;;;;;4948230;28;20264;-74
2022/04/04 12:02:56;;;;;;;17.10;14.30;;;5.00;99.90;;;;;;4956165;28;20205;-74
2022/04/04 12:05:24;;;;;;;15.83;14.13;;;4.90;99.90;;;;;;4949710;28;20204;-74
2022/04/04 12:07:54;;;;;;;17.47;13.80;;;5.00;99.90;;;;;;4957713;28;20228;-74
2022/04/04 12:10:32;;;;;;;16.23;14.13;;;5.00;99.90;;;;;;4960080;28;20211;-74
2022/04/04 12:13:06;;;;;;;16.20;13.30;;;5.00;99.90;;;;;;4964772;28;20230;-74
2022/04/04 12:15:34;;;;;;;14.03;11.93;;;5.00;99.90;;;;;;4961174;28;20571;-74
2022/04/04 12:18:04;;;;;;;14.30;11.47;;;4.90;99.90;;;;;;4944078;29;20243;-74
2022/04/04 12:20:42;;;;;;;13.03;11.53;;;4.90;99.90;;;;;;4945086;28;20220;-74
2022/04/04 12:26:02;;;;;;;15.37;13.60;;;5.00;99.90;;;;;;4946000;28;20197;-74
2022/04/04 12:28:32;;;;;;;11.30;10.13;;;4.90;99.90;;;;;;4953260;28;20659;-74
2022/04/04 12:31:10;;;;;;;13.33;11.73;;;4.90;99.90;;;;;;4962459;28;20213;-74
2022/04/04 12:33:54;;;;;;;13.77;12.33;;;4.90;99.90;;;;;;4945071;28;20201;-75
2022/04/04 12:36:27;;;;;;;14.60;12.50;;;4.90;99.90;;;;;;4946995;28;20229;-74
2022/04/04 12:38:58;;;;;;;13.43;12.00;;;4.90;99.90;;;;;;4949633;28;20204;-74
2022/04/04 12:41:26;;;;;;;13.97;12.53;;;4.90;99.90;;;;;;4955661;28;20197;-74
2022/04/04 12:44:00;;;;;;;14.83;12.60;;;4.90;99.90;;;;;;4964954;28;20549;-74
2022/04/04 12:46:30;;;;;;;13.63;11.43;;;4.80;99.90;;;;;;4951856;28;20227;-74
2022/04/04 12:49:12;;;;;;;15.43;13.83;;;4.70;99.90;;;;;;4953476;28;20201;-74
2022/04/04 12:51:40;;;;;;;16.07;14.07;;;4.70;99.90;;;;;;4948767;28;20206;-74
2022/04/04 12:54:54;;;;;;;15.13;13.43;;;4.70;99.90;;;;;;4952732;28;20200;-74
2022/04/04 12:57:28;;;;;;;16.50;13.93;;;4.70;99.90;;;;;;4967090;28;20237;-74
2022/04/04 12:59:57;;;;;;;14.83;13.20;;;4.70;99.90;;;;;;4960743;28;20212;-74
2022/04/04 13:02:31;;;;;;;16.97;13.33;;;4.70;99.90;;;;;;4955682;28;20558;-75
2022/04/04 13:05:12;;;;;;;15.80;14.03;;;4.70;99.90;;;;;;4950263;28;20207;-74
2022/04/04 13:07:53;;;;;;;16.00;13.70;;;4.70;99.90;;;;;;4966526;28;20224;-74
2022/04/04 13:10:24;;;;;;;15.77;13.83;;;4.70;99.90;;;;;;4963397;28;20202;-74